sensor_id;sensor_type;location;lat;lon;timestamp;pressure;altitude;pressure_sealevel;temperature;humidity
31183;BME280;17813;0.000;0.000;2023-03-04T00:02:12;77637.09;;;-142.58;74.54
31183;BME280;17813;0.000;0.000;2023-03-04T00:04:40;77635.03;;;-142.58;74.10
31183;BME280;17813;0.000;0.000;2023-03-04T00:07:07;77622.84;;;-142.58;73.76
31183;BME280;17813;0.000;0.000;2023-03-04T00:09:34;77620.81;;;-142.58;73.70
31183;BME280;17813;0.000;0.000;2023-03-04T00:12:01;77622.84;;;-142.58;74.79
31183;BME280;17813;0.000;0.000;2023-03-04T00:14:28;77620.81;;;-142.58;74.09
31183;BME280;17813;0.000;0.000;2023-03-04T00:16:54;77620.81;;;-142.58;74.87
31183;BME280;17813;0.000;0.000;2023-03-04T00:19:21;77624.88;;;-142.58;74.56
31183;BME280;17813;0.000;0.000;2023-03-04T00:21:49;77618.75;;;-142.58;74.60
31183;BME280;17813;0.000;0.000;2023-03-04T00:24:15;77612.66;;;-142.58;74.62
31183;BME280;17813;0.000;0.000;2023-03-04T00:26:42;77620.81;;;-142.58;74.45
31183;BME280;17813;0.000;0.000;2023-03-04T00:29:09;77622.84;;;-142.58;75.33
31183;BME280;17813;0.000;0.000;2023-03-04T00:31:37;77620.81;;;-142.58;74.62
31183;BME280;17813;0.000;0.000;2023-03-04T00:34:04;100002.03;;;1.75;74.79
31183;BME280;17813;0.000;0.000;2023-03-04T00:36:31;77614.69;;;-142.58;74.79
31183;BME280;17813;0.000;0.000;2023-03-04T00:38:58;77618.75;;;-142.58;74.44
31183;BME280;17813;0.000;0.000;2023-03-04T00:41:28;77624.88;;;-142.58;75.13
31183;BME280;17813;0.000;0.000;2023-03-04T02:43:54;77543.47;;;-142.58;75.91
31183;BME280;17813;0.000;0.000;2023-03-04T02:46:22;77529.22;;;-142.58;76.57
31183;BME280;17813;0.000;0.000;2023-03-04T02:48:50;77529.34;;;-142.58;76.46
31183;BME280;17813;0.000;0.000;2023-03-04T02:51:17;77521.22;;;-142.58;76.19
31183;BME280;17813;0.000;0.000;2023-03-04T02:53:44;77517.00;;;-142.58;76.04
31183;BME280;17813;0.000;0.000;2023-03-04T02:56:11;77510.91;;;-142.58;76.24
31183;BME280;17813;0.000;0.000;2023-03-04T02:58:38;77508.88;;;-142.58;76.18
31183;BME280;17813;0.000;0.000;2023-03-04T03:01:05;77512.94;;;-142.58;76.54
31183;BME280;17813;0.000;0.000;2023-03-04T03:03:33;77514.97;;;-142.58;76.76
31183;BME280;17813;0.000;0.000;2023-03-04T03:06:00;77508.88;;;-142.58;76.38
31183;BME280;17813;0.000;0.000;2023-03-04T03:08:27;77508.88;;;-142.58;75.75
31183;BME280;17813;0.000;0.000;2023-03-04T03:10:54;77496.78;;;-142.58;75.67
31183;BME280;17813;0.000;0.000;2023-03-04T03:13:21;77492.59;;;-142.58;75.99
31183;BME280;17813;0.000;0.000;2023-03-04T03:15:48;77494.63;;;-142.58;76.01
31183;BME280;17813;0.000;0.000;2023-03-04T03:18:15;77486.50;;;-142.58;75.71
31183;BME280;17813;0.000;0.000;2023-03-04T03:20:42;77482.41;;;-142.58;75.46
31183;BME280;17813;0.000;0.000;2023-03-04T03:23:09;77476.31;;;-142.58;75.96
31183;BME280;17813;0.000;0.000;2023-03-04T03:25:35;77478.34;;;-142.58;75.59
31183;BME280;17813;0.000;0.000;2023-03-04T03:28:02;77472.38;;;-142.58;75.28
31183;BME280;17813;0.000;0.000;2023-03-04T03:30:29;77472.25;;;-142.58;75.72
31183;BME280;17813;0.000;0.000;2023-03-04T03:32:55;77468.19;;;-142.58;75.63
31183;BME280;17813;0.000;0.000;2023-03-04T03:35:23;77468.19;;;-142.58;75.93
31183;BME280;17813;0.000;0.000;2023-03-04T03:37:49;77458.00;;;-142.58;75.93
31183;BME280;17813;0.000;0.000;2023-03-04T03:40:16;77449.84;;;-142.58;75.23
31183;BME280;17813;0.000;0.000;2023-03-04T03:42:44;77451.91;;;-142.58;75.64
31183;BME280;17813;0.000;0.000;2023-03-04T03:45:11;77443.75;;;-142.58;75.97
31183;BME280;17813;0.000;0.000;2023-03-04T03:47:38;77435.75;;;-142.58;75.38
31183;BME280;17813;0.000;0.000;2023-03-04T03:50:05;77443.75;;;-142.58;75.08
31183;BME280;17813;0.000;0.000;2023-03-04T03:52:32;77439.81;;;-142.58;75.83
31183;BME280;17813;0.000;0.000;2023-03-04T03:54:59;77435.75;;;-142.58;76.39
31183;BME280;17813;0.000;0.000;2023-03-04T03:57:30;77435.75;;;-142.58;75.57
31183;BME280;17813;0.000;0.000;2023-03-04T03:59:57;77445.78;;;-142.58;76.17
31183;BME280;17813;0.000;0.000;2023-03-04T04:02:24;77437.78;;;-142.58;76.18
31183;BME280;17813;0.000;0.000;2023-03-04T04:04:51;77437.78;;;-142.58;75.94
31183;BME280;17813;0.000;0.000;2023-03-04T04:07:18;77431.69;;;-142.58;76.19
31183;BME280;17813;0.000;0.000;2023-03-04T04:09:45;77435.63;;;-142.58;76.14
31183;BME280;17813;0.000;0.000;2023-03-04T04:12:14;77431.69;;;-142.58;75.71
31183;BME280;17813;0.000;0.000;2023-03-04T04:14:42;77431.53;;;-142.58;75.08
31183;BME280;17813;0.000;0.000;2023-03-04T04:17:10;77437.78;;;-142.58;75.85
31183;BME280;17813;0.000;0.000;2023-03-04T04:19:37;77435.63;;;-142.58;75.61
31183;BME280;17813;0.000;0.000;2023-03-04T04:22:07;77429.50;;;-142.58;75.57
31183;BME280;17813;0.000;0.000;2023-03-04T04:24:34;36666.78;;;-142.58;75.94
31183;BME280;17813;0.000;0.000;2023-03-04T04:27:02;77435.63;;;-142.58;75.89
31183;BME280;17813;0.000;0.000;2023-03-04T04:29:30;77435.75;;;-142.58;75.85
31183;BME280;17813;0.000;0.000;2023-03-04T04:31:57;77445.78;;;-142.58;75.54
31183;BME280;17813;0.000;0.000;2023-03-04T04:34:24;77453.94;;;-142.58;76.02
31183;BME280;17813;0.000;0.000;2023-03-04T04:36:51;77458.00;;;-142.58;75.93
31183;BME280;17813;0.000;0.000;2023-03-04T04:39:18;77460.03;;;-142.58;75.21
31183;BME280;17813;0.000;0.000;2023-03-04T04:41:46;77453.94;;;-142.58;75.91
31183;BME280;17813;0.000;0.000;2023-03-04T08:44:20;77095.81;;;-143.88;69.53
31183;BME280;17813;0.000;0.000;2023-03-04T08:46:47;99789.75;;;4.81;69.47
31183;BME280;17813;0.000;0.000;2023-03-04T08:49:16;99785.09;;;4.89;68.94
31183;BME280;17813;0.000;0.000;2023-03-04T08:51:48;99799.75;;;4.96;69.00
31183;BME280;17813;0.000;0.000;2023-03-04T08:54:21;99793.84;;;4.90;68.26
31183;BME280;17813;0.000;0.000;2023-03-04T08:56:56;99789.59;;;4.85;67.88
31183;BME280;17813;0.000;0.000;2023-03-04T08:59:24;99796.28;;;4.96;68.35
31183;BME280;17813;0.000;0.000;2023-03-04T09:01:53;99792.53;;;5.03;68.04
31183;BME280;17813;0.000;0.000;2023-03-04T09:04:20;99786.03;;;5.13;67.77
31183;BME280;17813;0.000;0.000;2023-03-04T09:06:48;99783.25;;;5.17;68.07
31183;BME280;17813;0.000;0.000;2023-03-04T09:09:17;99782.97;;;5.27;67.56
31183;BME280;17813;0.000;0.000;2023-03-04T09:11:44;99784.09;;;5.18;67.20
31183;BME280;17813;0.000;0.000;2023-03-04T09:14:11;99782.63;;;5.36;67.48
31183;BME280;17813;0.000;0.000;2023-03-04T09:16:38;99779.50;;;5.49;67.34
31183;BME280;17813;0.000;0.000;2023-03-04T09:19:05;99776.72;;;5.54;66.50
31183;BME280;17813;0.000;0.000;2023-03-04T09:21:32;99775.41;;;5.66;66.01
31183;BME280;17813;0.000;0.000;2023-03-04T09:24:00;99773.50;;;5.69;66.36
31183;BME280;17813;0.000;0.000;2023-03-04T09:26:29;99775.69;;;5.81;66.06
31183;BME280;17813;0.000;0.000;2023-03-04T09:28:59;99775.38;;;5.91;66.26
31183;BME280;17813;0.000;0.000;2023-03-04T09:31:28;99778.50;;;6.00;65.67
31183;BME280;17813;0.000;0.000;2023-03-04T09:33:56;99771.25;;;6.07;65.82
31183;BME280;17813;0.000;0.000;2023-03-04T09:36:29;99760.47;;;6.13;65.30
31183;BME280;17813;0.000;0.000;2023-03-04T09:39:02;99762.84;;;6.19;65.05
31183;BME280;17813;0.000;0.000;2023-03-04T09:41:46;99758.22;;;6.26;65.53
31183;BME280;17813;0.000;0.000;2023-03-04T09:44:21;99762.63;;;6.47;65.09
31183;BME280;17813;0.000;0.000;2023-03-04T09:46:50;99761.00;;;6.65;64.69
31183;BME280;17813;0.000;0.000;2023-03-04T09:49:19;99760.75;;;6.71;64.15
31183;BME280;17813;0.000;0.000;2023-03-04T10:05:21;99745.81;;;7.32;62.60
31183;BME280;17813;0.000;0.000;2023-03-04T10:07:59;99744.69;;;7.38;61.91
31183;BME280;17813;0.000;0.000;2023-03-04T10:10:32;99742.28;;;7.52;62.25
31183;BME280;17813;0.000;0.000;2023-03-04T10:13:02;99731.59;;;7.55;61.42
31183;BME280;17813;0.000;0.000;2023-03-04T10:15:39;99737.13;;;7.49;60.85
31183;BME280;17813;0.000;0.000;2023-03-04T10:18:57;99737.13;;;7.49;60.94
31183;BME280;17813;0.000;0.000;2023-03-04T10:21:34;99734.94;;;7.59;61.51
31183;BME280;17813;0.000;0.000;2023-03-04T10:24:11;99724.31;;;7.79;61.21
31183;BME280;17813;0.000;0.000;2023-03-04T10:26:46;99726.84;;;7.82;61.10
31183;BME280;17813;0.000;0.000;2023-03-04T10:29:17;99720.03;;;7.77;60.35
31183;BME280;17813;0.000;0.000;2023-03-04T10:31:46;99725.09;;;7.62;60.59
31183;BME280;17813;0.000;0.000;2023-03-04T10:34:16;99729.44;;;7.63;60.43
31183;BME280;17813;0.000;0.000;2023-03-04T10:39:34;99721.88;;;7.56;60.62
31183;BME280;17813;0.000;0.000;2023-03-04T10:44:32;99719.44;;;7.51;61.04
31183;BME280;17813;0.000;0.000;2023-03-04T10:47:00;99727.91;;;7.39;61.50
31183;BME280;17813;0.000;0.000;2023-03-04T10:49:29;99723.22;;;7.46;61.35
31183;BME280;17813;0.000;0.000;2023-03-04T10:53:04;99724.50;;;7.37;61.03
31183;BME280;17813;0.000;0.000;2023-03-04T10:55:17;99725.91;;;7.25;61.27
31183;BME280;17813;0.000;0.000;2023-03-04T10:57:48;99721.75;;;7.20;61.64
31183;BME280;17813;0.000;0.000;2023-03-04T11:00:34;99713.91;;;7.18;61.19
31183;BME280;17813;0.000;0.000;2023-03-04T11:06:06;99716.06;;;7.29;61.45
31183;BME280;17813;0.000;0.000;2023-03-04T11:08:37;99703.59;;;7.32;61.63
31183;BME280;17813;0.000;0.000;2023-03-04T11:11:30;99705.03;;;7.39;60.70
31183;BME280;17813;0.000;0.000;2023-03-04T11:14:15;99693.34;;;7.45;60.84
31183;BME280;17813;0.000;0.000;2023-03-04T11:16:56;99697.47;;;7.32;60.21
31183;BME280;17813;0.000;0.000;2023-03-04T11:19:38;99688.09;;;7.25;60.93
31183;BME280;17813;0.000;0.000;2023-03-04T11:22:06;99688.47;;;7.36;60.97
31183;BME280;17813;0.000;0.000;2023-03-04T11:24:35;99686.06;;;7.50;60.90
31183;BME280;17813;0.000;0.000;2023-03-04T11:27:08;99681.28;;;7.58;60.18
31183;BME280;17813;0.000;0.000;2023-03-04T11:29:47;99678.00;;;7.53;60.12
31183;BME280;17813;0.000;0.000;2023-03-04T11:32:19;99686.94;;;7.51;60.62
31183;BME280;17813;0.000;0.000;2023-03-04T11:37:40;99675.72;;;7.46;59.94
31183;BME280;17813;0.000;0.000;2023-03-04T11:43:37;99679.34;;;7.24;60.80
31183;BME280;17813;0.000;0.000;2023-03-04T11:52:05;99672.84;;;7.31;61.07
31183;BME280;17813;0.000;0.000;2023-03-04T12:25:58;99626.84;;;7.74;60.33
31183;BME280;17813;0.000;0.000;2023-03-04T12:28:46;99621.72;;;7.71;60.04
31183;BME280;17813;0.000;0.000;2023-03-04T12:31:41;99625.44;;;7.67;60.25
31183;BME280;17813;0.000;0.000;2023-03-04T12:34:51;99620.72;;;7.74;59.95
31183;BME280;17813;0.000;0.000;2023-03-04T12:42:49;99614.19;;;7.83;60.62
31183;BME280;17813;0.000;0.000;2023-03-04T14:48:33;99529.94;;;-142.58;60.45
31183;BME280;17813;0.000;0.000;2023-03-04T14:51:01;99523.25;;;8.05;59.87
31183;BME280;17813;0.000;0.000;2023-03-04T14:53:32;99520.53;;;8.24;59.37
31183;BME280;17813;0.000;0.000;2023-03-04T14:56:07;99514.22;;;8.27;59.23
31183;BME280;17813;0.000;0.000;2023-03-04T14:58:37;99512.69;;;8.23;59.49
31183;BME280;17813;0.000;0.000;2023-03-04T15:01:07;99510.44;;;8.15;59.16
31183;BME280;17813;0.000;0.000;2023-03-04T15:03:40;99511.13;;;8.01;59.39
31183;BME280;17813;0.000;0.000;2023-03-04T15:06:18;99509.56;;;7.97;59.37
31183;BME280;17813;0.000;0.000;2023-03-04T15:08:54;99522.00;;;7.95;60.02
31183;BME280;17813;0.000;0.000;2023-03-04T15:11:26;99508.25;;;7.89;60.50
31183;BME280;17813;0.000;0.000;2023-03-04T15:13:55;99519.41;;;7.77;61.20
31183;BME280;17813;0.000;0.000;2023-03-04T15:16:27;99512.78;;;7.68;61.43
31183;BME280;17813;0.000;0.000;2023-03-04T15:21:36;99521.03;;;7.43;62.75
31183;BME280;17813;0.000;0.000;2023-03-04T15:24:05;99524.47;;;7.45;62.65
31183;BME280;17813;0.000;0.000;2023-03-04T15:26:33;99514.28;;;7.37;63.19
31183;BME280;17813;0.000;0.000;2023-03-04T15:29:11;99513.00;;;7.27;63.55
31183;BME280;17813;0.000;0.000;2023-03-04T15:31:39;99515.50;;;7.30;63.49
31183;BME280;17813;0.000;0.000;2023-03-04T15:34:17;99516.88;;;7.20;63.45
31183;BME280;17813;0.000;0.000;2023-03-04T15:36:47;99514.44;;;7.16;63.87
31183;BME280;17813;0.000;0.000;2023-03-04T15:39:16;99514.94;;;7.05;64.13
31183;BME280;17813;0.000;0.000;2023-03-04T15:41:44;99507.03;;;7.05;64.11
31183;BME280;17813;0.000;0.000;2023-03-04T15:44:13;99506.47;;;6.98;64.56
31183;BME280;17813;0.000;0.000;2023-03-04T16:08:18;99535.13;;;6.48;69.25
31183;BME280;17813;0.000;0.000;2023-03-04T16:23:27;99516.19;;;6.20;70.92
31183;BME280;17813;0.000;0.000;2023-03-04T16:47:25;99515.19;;;6.02;71.15
31183;BME280;17813;0.000;0.000;2023-03-04T16:49:53;99513.47;;;6.01;71.55
31183;BME280;17813;0.000;0.000;2023-03-04T16:52:30;99519.78;;;5.97;71.57
31183;BME280;17813;0.000;0.000;2023-03-04T16:54:57;99518.34;;;5.90;72.12
31183;BME280;17813;0.000;0.000;2023-03-04T16:57:26;99512.16;;;5.91;71.96
31183;BME280;17813;0.000;0.000;2023-03-04T16:59:57;99518.44;;;5.87;71.86
31183;BME280;17813;0.000;0.000;2023-03-04T17:02:24;99519.28;;;5.87;71.96
31183;BME280;17813;0.000;0.000;2023-03-04T17:04:53;99523.81;;;5.84;71.62
31183;BME280;17813;0.000;0.000;2023-03-04T17:07:32;99519.53;;;5.81;72.07
31183;BME280;17813;0.000;0.000;2023-03-04T17:10:00;99519.66;;;5.78;71.85
31183;BME280;17813;0.000;0.000;2023-03-04T17:12:26;99520.53;;;5.78;71.83
31183;BME280;17813;0.000;0.000;2023-03-04T17:14:55;99518.22;;;5.71;72.20
31183;BME280;17813;0.000;0.000;2023-03-04T17:17:24;99521.69;;;5.71;72.39
31183;BME280;17813;0.000;0.000;2023-03-04T17:19:53;99527.16;;;5.67;72.83
31183;BME280;17813;0.000;0.000;2023-03-04T17:22:19;99526.50;;;5.62;73.19
31183;BME280;17813;0.000;0.000;2023-03-04T17:24:47;99522.31;;;5.56;74.05
31183;BME280;17813;0.000;0.000;2023-03-04T17:27:13;99529.19;;;5.60;73.55
31183;BME280;17813;0.000;0.000;2023-03-04T17:29:40;99526.66;;;5.57;73.44
31183;BME280;17813;0.000;0.000;2023-03-04T17:32:07;99531.06;;;5.57;73.78
31183;BME280;17813;0.000;0.000;2023-03-04T17:34:35;99530.94;;;5.60;73.56
31183;BME280;17813;0.000;0.000;2023-03-04T17:37:01;99523.13;;;5.58;73.18
31183;BME280;17813;0.000;0.000;2023-03-04T17:39:29;99536.28;;;5.58;73.64
31183;BME280;17813;0.000;0.000;2023-03-04T17:41:55;99532.84;;;5.56;73.70
31183;BME280;17813;0.000;0.000;2023-03-04T17:44:22;99526.66;;;5.57;73.38
31183;BME280;17813;0.000;0.000;2023-03-04T18:14:38;99536.13;;;5.17;73.81
31183;BME280;17813;0.000;0.000;2023-03-04T18:47:52;99530.22;;;5.11;73.17
31183;BME280;17813;0.000;0.000;2023-03-04T18:50:19;99527.44;;;5.15;73.24
31183;BME280;17813;0.000;0.000;2023-03-04T18:52:48;99527.38;;;5.17;73.45
31183;BME280;17813;0.000;0.000;2023-03-04T18:55:19;99522.91;;;5.19;73.08
31183;BME280;17813;0.000;0.000;2023-03-04T18:57:49;99528.06;;;5.22;72.88
31183;BME280;17813;0.000;0.000;2023-03-04T19:00:19;99528.81;;;5.26;72.79
31183;BME280;17813;0.000;0.000;2023-03-04T19:02:50;99524.66;;;5.20;73.54
31183;BME280;17813;0.000;0.000;2023-03-04T19:05:22;99525.38;;;5.24;73.31
31183;BME280;17813;0.000;0.000;2023-03-04T19:07:49;99532.31;;;5.26;73.18
31183;BME280;17813;0.000;0.000;2023-03-04T19:10:17;99531.25;;;5.30;73.30
31183;BME280;17813;0.000;0.000;2023-03-04T19:12:44;99534.75;;;5.31;73.34
31183;BME280;17813;0.000;0.000;2023-03-04T19:15:12;99532.97;;;5.31;72.76
31183;BME280;17813;0.000;0.000;2023-03-04T19:17:40;99544.41;;;5.30;73.37
31183;BME280;17813;0.000;0.000;2023-03-04T19:20:09;99537.50;;;5.28;73.42
31183;BME280;17813;0.000;0.000;2023-03-04T19:22:36;99541.03;;;5.27;73.13
31183;BME280;17813;0.000;0.000;2023-03-04T19:25:04;99544.78;;;5.21;73.54
31183;BME280;17813;0.000;0.000;2023-03-04T19:27:31;99550.94;;;5.20;74.33
31183;BME280;17813;0.000;0.000;2023-03-04T19:29:58;99554.75;;;5.11;74.22
31183;BME280;17813;0.000;0.000;2023-03-04T19:32:25;99551.44;;;5.06;74.51
31183;BME280;17813;0.000;0.000;2023-03-04T19:34:52;99549.78;;;5.04;74.76
31183;BME280;17813;0.000;0.000;2023-03-04T19:37:19;99547.09;;;5.05;74.41
31183;BME280;17813;0.000;0.000;2023-03-04T19:39:46;99551.38;;;5.08;73.79
31183;BME280;17813;0.000;0.000;2023-03-04T19:42:15;99549.59;;;5.08;73.89
31183;BME280;17813;0.000;0.000;2023-03-04T19:44:44;99551.31;;;5.09;74.03
31183;BME280;17813;0.000;0.000;2023-03-04T19:47:13;99542.47;;;5.12;73.71
31183;BME280;17813;0.000;0.000;2023-03-04T19:49:39;99543.25;;;5.14;73.78
31183;BME280;17813;0.000;0.000;2023-03-04T19:52:06;99545.16;;;5.10;73.86
31183;BME280;17813;0.000;0.000;2023-03-04T19:54:33;99547.03;;;5.07;74.53
31183;BME280;17813;0.000;0.000;2023-03-04T19:57:00;99548.13;;;5.01;74.62
31183;BME280;17813;0.000;0.000;2023-03-04T19:59:27;99542.00;;;5.01;75.08
31183;BME280;17813;0.000;0.000;2023-03-04T20:01:53;99556.13;;;4.98;75.13
31183;BME280;17813;0.000;0.000;2023-03-04T20:04:21;99545.72;;;4.95;75.04
31183;BME280;17813;0.000;0.000;2023-03-04T20:06:49;99554.66;;;4.91;75.02
31183;BME280;17813;0.000;0.000;2023-03-04T20:09:17;76851.63;;;-143.88;75.02
31183;BME280;17813;0.000;0.000;2023-03-04T20:11:45;99540.81;;;4.86;76.04
31183;BME280;17813;0.000;0.000;2023-03-04T20:14:12;76847.56;;;-142.58;76.04
31183;BME280;17813;0.000;0.000;2023-03-04T20:16:39;99551.41;;;4.84;75.52
31183;BME280;17813;0.000;0.000;2023-03-04T20:19:06;99546.19;;;4.83;75.18
31183;BME280;17813;0.000;0.000;2023-03-04T20:21:33;76853.81;;;-143.88;75.18
31183;BME280;17813;0.000;0.000;2023-03-04T20:24:01;99549.09;;;4.75;75.76
31183;BME280;17813;0.000;0.000;2023-03-04T20:26:30;99550.88;;;4.75;75.35
31183;BME280;17813;0.000;0.000;2023-03-04T20:28:58;99549.00;;;4.78;75.07
31183;BME280;17813;0.000;0.000;2023-03-04T20:31:27;99548.34;;;4.72;75.09
31183;BME280;17813;0.000;0.000;2023-03-04T20:33:55;99555.22;;;4.76;74.75
31183;BME280;17813;0.000;0.000;2023-03-04T20:36:24;99556.19;;;4.73;75.03
31183;BME280;17813;0.000;0.000;2023-03-04T20:38:52;99556.19;;;4.73;75.10
31183;BME280;17813;0.000;0.000;2023-03-04T20:41:23;99558.75;;;4.75;75.10
31183;BME280;17813;0.000;0.000;2023-03-04T20:43:51;99555.16;;;4.77;74.43
31183;BME280;17813;0.000;0.000;2023-03-04T20:46:37;99557.03;;;4.74;74.57
31183;BME280;17813;0.000;0.000;2023-03-04T20:49:11;99557.84;;;4.76;74.65
31183;BME280;17813;0.000;0.000;2023-03-04T20:51:38;76874.03;;;-143.88;74.65
31183;BME280;17813;0.000;0.000;2023-03-04T20:54:06;76904.53;;;-143.88;75.00
31183;BME280;17813;0.000;0.000;2023-03-04T20:56:33;76908.59;;;-143.88;75.19
31183;BME280;17813;0.000;0.000;2023-03-04T20:59:02;76900.47;;;-143.88;74.61
31183;BME280;17813;0.000;0.000;2023-03-04T21:01:30;99565.72;;;4.76;73.80
31183;BME280;17813;0.000;0.000;2023-03-04T21:03:58;76880.13;;;-143.88;73.80
31183;BME280;17813;0.000;0.000;2023-03-04T21:06:26;99553.38;;;4.78;73.90
31183;BME280;17813;0.000;0.000;2023-03-04T21:08:58;99560.53;;;4.74;73.46
31183;BME280;17813;0.000;0.000;2023-03-04T21:11:25;76878.09;;;-143.88;73.46
31183;BME280;17813;0.000;0.000;2023-03-04T21:13:52;99566.88;;;4.69;73.11
31183;BME280;17813;0.000;0.000;2023-03-04T21:16:24;99567.88;;;4.65;73.05
31183;BME280;17813;0.000;0.000;2023-03-04T21:18:51;99562.53;;;4.68;72.82
31183;BME280;17813;0.000;0.000;2023-03-04T21:21:24;99558.41;;;4.61;73.44
31183;BME280;17813;0.000;0.000;2023-03-04T21:23:52;76894.38;;;-143.88;73.44
31183;BME280;17813;0.000;0.000;2023-03-04T21:26:20;99566.41;;;4.58;72.95
31183;BME280;17813;0.000;0.000;2023-03-04T21:28:48;76904.53;;;-143.88;72.95
31183;BME280;17813;0.000;0.000;2023-03-04T21:31:22;99554.97;;;4.59;72.73
31183;BME280;17813;0.000;0.000;2023-03-04T21:33:51;76894.38;;;-143.88;72.73
31183;BME280;17813;0.000;0.000;2023-03-04T21:36:18;76918.78;;;-143.88;72.57
31183;BME280;17813;0.000;0.000;2023-03-04T21:38:46;99556.69;;;4.60;72.83
31183;BME280;17813;0.000;0.000;2023-03-04T21:41:15;76894.38;;;-143.88;72.83
31183;BME280;17813;0.000;0.000;2023-03-04T21:43:43;99555.88;;;4.58;73.15
31183;BME280;17813;0.000;0.000;2023-03-04T21:46:10;99556.97;;;4.52;73.17
31183;BME280;17813;0.000;0.000;2023-03-04T21:48:37;99561.13;;;4.58;72.63
31183;BME280;17813;0.000;0.000;2023-03-04T21:51:06;76900.47;;;-143.88;72.63
31183;BME280;17813;0.000;0.000;2023-03-04T21:53:34;76943.19;;;-143.88;72.49
31183;BME280;17813;0.000;0.000;2023-03-04T21:56:02;99559.44;;;4.57;72.73
31183;BME280;17813;0.000;0.000;2023-03-04T21:58:29;99564.63;;;4.58;73.15
31183;BME280;17813;0.000;0.000;2023-03-04T22:00:57;99561.94;;;4.60;73.26
31183;BME280;17813;0.000;0.000;2023-03-04T22:03:24;76898.44;;;-143.88;73.26
31183;BME280;17813;0.000;0.000;2023-03-04T22:05:52;99558.41;;;4.61;73.08
31183;BME280;17813;0.000;0.000;2023-03-04T22:08:20;99554.06;;;4.60;72.72
31183;BME280;17813;0.000;0.000;2023-03-04T22:10:47;99551.72;;;4.52;73.45
31183;BME280;17813;0.000;0.000;2023-03-04T22:13:15;76900.47;;;-143.88;73.45
31183;BME280;17813;0.000;0.000;2023-03-04T22:15:42;99546.63;;;4.47;73.03
31183;BME280;17813;0.000;0.000;2023-03-04T22:18:11;76902.50;;;-143.88;73.03
31183;BME280;17813;0.000;0.000;2023-03-04T22:20:41;76945.22;;;-142.58;73.58
31183;BME280;17813;0.000;0.000;2023-03-04T22:23:09;76912.69;;;-143.88;73.30
31183;BME280;17813;0.000;0.000;2023-03-04T22:25:37;99544.22;;;4.41;72.94
31183;BME280;17813;0.000;0.000;2023-03-04T22:28:05;76908.59;;;-142.58;72.94
31183;BME280;17813;0.000;0.000;2023-03-04T22:30:36;76924.88;;;-143.88;72.70
31183;BME280;17813;0.000;0.000;2023-03-04T22:33:03;76947.25;;;-143.88;73.14
31183;BME280;17813;0.000;0.000;2023-03-04T22:35:30;99546.38;;;4.30;73.45
31183;BME280;17813;0.000;0.000;2023-03-04T22:37:57;99548.09;;;4.31;72.53
31183;BME280;17813;0.000;0.000;2023-03-04T22:40:24;99548.50;;;-143.88;72.53
31183;BME280;17813;0.000;0.000;2023-03-04T22:42:51;76939.13;;;-143.88;73.03
31183;BME280;17813;0.000;0.000;2023-03-04T22:45:18;76973.72;;;-143.88;72.69
31183;BME280;17813;0.000;0.000;2023-03-04T22:47:50;76977.78;;;-142.58;72.92
31183;BME280;17813;0.000;0.000;2023-03-04T22:50:18;76953.38;;;-142.58;72.46
31183;BME280;17813;0.000;0.000;2023-03-04T22:52:46;76953.38;;;-142.58;71.65
31183;BME280;17813;0.000;0.000;2023-03-04T22:55:18;76937.09;;;-143.88;71.82
31183;BME280;17813;0.000;0.000;2023-03-04T22:57:46;99542.66;;;4.11;71.03
31183;BME280;17813;0.000;0.000;2023-03-04T23:00:18;76947.25;;;-142.58;71.03
31183;BME280;17813;0.000;0.000;2023-03-04T23:02:46;76961.50;;;-142.58;71.64
31183;BME280;17813;0.000;0.000;2023-03-04T23:05:14;76957.44;;;-142.58;71.57
31183;BME280;17813;0.000;0.000;2023-03-04T23:07:42;76953.38;;;-142.58;71.25
31183;BME280;17813;0.000;0.000;2023-03-04T23:10:28;76953.38;;;-142.58;70.41
31183;BME280;17813;0.000;0.000;2023-03-04T23:12:55;76965.56;;;-142.58;70.00
31183;BME280;17813;0.000;0.000;2023-03-04T23:15:22;76957.44;;;-142.58;70.49
31183;BME280;17813;0.000;0.000;2023-03-04T23:17:52;76957.44;;;-143.88;70.52
31183;BME280;17813;0.000;0.000;2023-03-04T23:20:20;76994.06;;;-142.58;69.76
31183;BME280;17813;0.000;0.000;2023-03-04T23:22:49;76963.53;;;-142.58;69.78
31183;BME280;17813;0.000;0.000;2023-03-04T23:25:16;76963.53;;;-142.58;68.23
31183;BME280;17813;0.000;0.000;2023-03-04T23:27:43;76969.66;;;-142.58;68.65
31183;BME280;17813;0.000;0.000;2023-03-04T23:30:14;76979.81;;;-142.58;68.21
31183;BME280;17813;0.000;0.000;2023-03-04T23:32:43;76975.75;;;-142.58;67.88
31183;BME280;17813;0.000;0.000;2023-03-04T23:35:11;99533.09;;;-142.58;68.27
31183;BME280;17813;0.000;0.000;2023-03-04T23:37:38;76977.78;;;-142.58;68.27
31183;BME280;17813;0.000;0.000;2023-03-04T23:40:06;76969.66;;;-142.58;67.71
31183;BME280;17813;0.000;0.000;2023-03-04T23:42:33;76969.66;;;-142.58;67.60
31183;BME280;17813;0.000;0.000;2023-03-04T23:44:59;76961.50;;;-142.58;66.74
31183;BME280;17813;0.000;0.000;2023-03-04T23:47:26;76959.47;;;-142.58;67.40
31183;BME280;17813;0.000;0.000;2023-03-04T23:49:53;76969.66;;;-142.58;67.33
31183;BME280;17813;0.000;0.000;2023-03-04T23:52:20;76973.72;;;-142.58;67.43
31183;BME280;17813;0.000;0.000;2023-03-04T23:54:47;76969.66;;;-142.58;67.39
31183;BME280;17813;0.000;0.000;2023-03-04T23:57:15;76984.00;;;-142.58;67.96
31183;BME280;17813;0.000;0.000;2023-03-04T23:59:44;76977.78;;;-142.58;67.95
